sensor_id;sensor_type;location;lat;lon;timestamp;P1;durP1;ratioP1;P2;durP2;ratioP2
47259;SDS011;32999;52.412;4.890;2024-02-14T00:04:39;13.00;;;9.63;;
47259;SDS011;32999;52.412;4.890;2024-02-14T00:09:41;13.93;;;9.70;;
47259;SDS011;32999;52.412;4.890;2024-02-14T00:14:44;12.07;;;9.02;;
47259;SDS011;32999;52.412;4.890;2024-02-14T00:19:45;16.75;;;10.32;;
47259;SDS011;32999;52.412;4.890;2024-02-14T00:24:47;11.45;;;8.73;;
47259;SDS011;32999;52.412;4.890;2024-02-14T00:29:51;13.07;;;8.63;;
47259;SDS011;32999;52.412;4.890;2024-02-14T00:34:54;11.65;;;8.30;;
47259;SDS011;32999;52.412;4.890;2024-02-14T00:39:55;13.07;;;9.15;;
47259;SDS011;32999;52.412;4.890;2024-02-14T00:44:59;12.15;;;8.80;;
47259;SDS011;32999;52.412;4.890;2024-02-14T00:50:00;12.95;;;8.80;;
47259;SDS011;32999;52.412;4.890;2024-02-14T00:55:03;13.25;;;9.63;;
47259;SDS011;32999;52.412;4.890;2024-02-14T01:00:07;16.23;;;10.15;;
47259;SDS011;32999;52.412;4.890;2024-02-14T01:05:09;17.77;;;9.68;;
47259;SDS011;32999;52.412;4.890;2024-02-14T01:10:10;14.32;;;9.98;;
47259;SDS011;32999;52.412;4.890;2024-02-14T01:15:13;15.02;;;9.93;;
47259;SDS011;32999;52.412;4.890;2024-02-14T01:20:15;14.55;;;9.60;;
47259;SDS011;32999;52.412;4.890;2024-02-14T01:25:17;14.40;;;10.40;;
47259;SDS011;32999;52.412;4.890;2024-02-14T01:30:20;18.02;;;10.02;;
47259;SDS011;32999;52.412;4.890;2024-02-14T01:35:21;21.83;;;12.52;;
47259;SDS011;32999;52.412;4.890;2024-02-14T01:40:23;18.52;;;11.75;;
47259;SDS011;32999;52.412;4.890;2024-02-14T01:45:26;15.40;;;10.43;;
47259;SDS011;32999;52.412;4.890;2024-02-14T01:50:27;16.25;;;9.77;;
47259;SDS011;32999;52.412;4.890;2024-02-14T01:55:31;18.23;;;10.93;;
47259;SDS011;32999;52.412;4.890;2024-02-14T02:00:35;13.35;;;9.10;;
47259;SDS011;32999;52.412;4.890;2024-02-14T02:05:37;20.13;;;9.88;;
47259;SDS011;32999;52.412;4.890;2024-02-14T02:10:39;19.85;;;11.48;;
47259;SDS011;32999;52.412;4.890;2024-02-14T02:15:42;20.35;;;10.73;;
47259;SDS011;32999;52.412;4.890;2024-02-14T02:20:45;17.55;;;9.25;;
47259;SDS011;32999;52.412;4.890;2024-02-14T02:25:48;16.42;;;8.52;;
47259;SDS011;32999;52.412;4.890;2024-02-14T02:30:50;7.72;;;4.82;;
47259;SDS011;32999;52.412;4.890;2024-02-14T02:35:53;10.35;;;5.93;;
47259;SDS011;32999;52.412;4.890;2024-02-14T02:40:56;17.77;;;10.35;;
47259;SDS011;32999;52.412;4.890;2024-02-14T02:45:58;6.22;;;3.55;;
47259;SDS011;32999;52.412;4.890;2024-02-14T02:50:59;12.88;;;6.15;;
47259;SDS011;32999;52.412;4.890;2024-02-14T02:56:03;8.68;;;4.18;;
47259;SDS011;32999;52.412;4.890;2024-02-14T03:01:07;16.83;;;7.57;;
47259;SDS011;32999;52.412;4.890;2024-02-14T03:06:09;21.40;;;10.20;;
47259;SDS011;32999;52.412;4.890;2024-02-14T03:11:14;23.20;;;10.50;;
47259;SDS011;32999;52.412;4.890;2024-02-14T03:16:16;21.63;;;10.20;;
47259;SDS011;32999;52.412;4.890;2024-02-14T03:21:18;22.95;;;8.93;;
47259;SDS011;32999;52.412;4.890;2024-02-14T03:26:20;22.02;;;7.40;;
47259;SDS011;32999;52.412;4.890;2024-02-14T03:31:22;24.38;;;9.52;;
47259;SDS011;32999;52.412;4.890;2024-02-14T03:36:26;32.72;;;8.80;;
47259;SDS011;32999;52.412;4.890;2024-02-14T03:46:33;27.95;;;7.70;;
47259;SDS011;32999;52.412;4.890;2024-02-14T03:51:36;32.03;;;6.15;;
47259;SDS011;32999;52.412;4.890;2024-02-14T03:56:38;24.90;;;5.35;;
47259;SDS011;32999;52.412;4.890;2024-02-14T04:01:45;37.85;;;7.75;;
47259;SDS011;32999;52.412;4.890;2024-02-14T04:06:46;32.95;;;8.90;;
47259;SDS011;32999;52.412;4.890;2024-02-14T04:11:48;30.17;;;6.18;;
47259;SDS011;32999;52.412;4.890;2024-02-14T04:16:51;26.05;;;6.28;;
47259;SDS011;32999;52.412;4.890;2024-02-14T04:21:53;42.28;;;8.13;;
47259;SDS011;32999;52.412;4.890;2024-02-14T04:26:54;29.27;;;7.72;;
47259;SDS011;32999;52.412;4.890;2024-02-14T04:31:58;26.70;;;5.95;;
47259;SDS011;32999;52.412;4.890;2024-02-14T04:36:59;30.13;;;6.22;;
47259;SDS011;32999;52.412;4.890;2024-02-14T04:42:02;31.27;;;8.05;;
47259;SDS011;32999;52.412;4.890;2024-02-14T04:47:06;33.03;;;6.57;;
47259;SDS011;32999;52.412;4.890;2024-02-14T04:52:09;28.30;;;6.53;;
47259;SDS011;32999;52.412;4.890;2024-02-14T04:57:11;36.28;;;8.35;;
47259;SDS011;32999;52.412;4.890;2024-02-14T05:02:14;43.25;;;8.48;;
47259;SDS011;32999;52.412;4.890;2024-02-14T05:07:15;34.38;;;9.68;;
47259;SDS011;32999;52.412;4.890;2024-02-14T05:12:17;29.73;;;7.15;;
47259;SDS011;32999;52.412;4.890;2024-02-14T05:17:21;30.90;;;8.18;;
47259;SDS011;32999;52.412;4.890;2024-02-14T05:22:22;36.15;;;8.25;;
47259;SDS011;32999;52.412;4.890;2024-02-14T05:27:24;31.73;;;6.88;;
47259;SDS011;32999;52.412;4.890;2024-02-14T05:32:27;35.05;;;7.47;;
47259;SDS011;32999;52.412;4.890;2024-02-14T05:37:29;34.38;;;8.68;;
47259;SDS011;32999;52.412;4.890;2024-02-14T05:42:31;20.02;;;7.25;;
47259;SDS011;32999;52.412;4.890;2024-02-14T05:47:34;27.70;;;7.22;;
47259;SDS011;32999;52.412;4.890;2024-02-14T05:52:35;22.50;;;6.82;;
47259;SDS011;32999;52.412;4.890;2024-02-14T05:57:37;23.75;;;8.10;;
47259;SDS011;32999;52.412;4.890;2024-02-14T06:02:41;22.63;;;7.97;;
47259;SDS011;32999;52.412;4.890;2024-02-14T06:07:43;29.90;;;7.97;;
47259;SDS011;32999;52.412;4.890;2024-02-14T06:12:45;30.40;;;8.38;;
47259;SDS011;32999;52.412;4.890;2024-02-14T06:17:49;27.35;;;9.27;;
47259;SDS011;32999;52.412;4.890;2024-02-14T06:22:51;35.00;;;8.98;;
47259;SDS011;32999;52.412;4.890;2024-02-14T06:27:53;30.05;;;7.93;;
47259;SDS011;32999;52.412;4.890;2024-02-14T06:32:56;27.05;;;8.70;;
47259;SDS011;32999;52.412;4.890;2024-02-14T06:38:00;29.23;;;10.00;;
47259;SDS011;32999;52.412;4.890;2024-02-14T06:43:02;33.28;;;10.48;;
47259;SDS011;32999;52.412;4.890;2024-02-14T06:48:05;27.88;;;8.52;;
47259;SDS011;32999;52.412;4.890;2024-02-14T06:53:08;25.77;;;6.90;;
47259;SDS011;32999;52.412;4.890;2024-02-14T06:58:10;25.25;;;8.63;;
47259;SDS011;32999;52.412;4.890;2024-02-14T07:03:13;25.95;;;8.23;;
47259;SDS011;32999;52.412;4.890;2024-02-14T07:08:14;28.08;;;11.95;;
47259;SDS011;32999;52.412;4.890;2024-02-14T07:13:16;32.17;;;12.13;;
47259;SDS011;32999;52.412;4.890;2024-02-14T07:18:19;28.35;;;13.23;;
47259;SDS011;32999;52.412;4.890;2024-02-14T07:23:21;23.83;;;11.65;;
47259;SDS011;32999;52.412;4.890;2024-02-14T07:28:23;23.25;;;8.98;;
47259;SDS011;32999;52.412;4.890;2024-02-14T07:33:26;30.25;;;10.10;;
47259;SDS011;32999;52.412;4.890;2024-02-14T07:38:27;37.67;;;14.88;;
47259;SDS011;32999;52.412;4.890;2024-02-14T07:43:29;28.65;;;13.02;;
47259;SDS011;32999;52.412;4.890;2024-02-14T07:48:33;25.85;;;10.63;;
47259;SDS011;32999;52.412;4.890;2024-02-14T07:53:34;28.42;;;12.13;;
47259;SDS011;32999;52.412;4.890;2024-02-14T07:58:36;26.92;;;12.23;;
47259;SDS011;32999;52.412;4.890;2024-02-14T08:03:41;41.90;;;15.77;;
47259;SDS011;32999;52.412;4.890;2024-02-14T08:08:42;25.48;;;10.95;;
47259;SDS011;32999;52.412;4.890;2024-02-14T08:13:44;24.30;;;11.75;;
47259;SDS011;32999;52.412;4.890;2024-02-14T08:18:47;19.85;;;9.07;;
47259;SDS011;32999;52.412;4.890;2024-02-14T08:23:51;25.23;;;11.20;;
47259;SDS011;32999;52.412;4.890;2024-02-14T08:28:52;24.95;;;8.73;;
47259;SDS011;32999;52.412;4.890;2024-02-14T08:33:56;22.35;;;8.25;;
47259;SDS011;32999;52.412;4.890;2024-02-14T08:38:57;20.23;;;8.90;;
47259;SDS011;32999;52.412;4.890;2024-02-14T08:44:00;25.23;;;10.07;;
47259;SDS011;32999;52.412;4.890;2024-02-14T08:49:12;23.40;;;11.52;;
47259;SDS011;32999;52.412;4.890;2024-02-14T08:54:18;18.13;;;8.05;;
47259;SDS011;32999;52.412;4.890;2024-02-14T08:59:25;17.58;;;7.43;;
47259;SDS011;32999;52.412;4.890;2024-02-14T09:04:37;16.17;;;7.90;;
47259;SDS011;32999;52.412;4.890;2024-02-14T09:09:40;14.82;;;8.25;;
47259;SDS011;32999;52.412;4.890;2024-02-14T09:14:42;14.52;;;5.78;;
47259;SDS011;32999;52.412;4.890;2024-02-14T09:19:50;9.88;;;4.95;;
47259;SDS011;32999;52.412;4.890;2024-02-14T09:24:55;12.65;;;4.07;;
47259;SDS011;32999;52.412;4.890;2024-02-14T09:29:57;4.28;;;2.78;;
47259;SDS011;32999;52.412;4.890;2024-02-14T09:35:00;3.95;;;2.20;;
47259;SDS011;32999;52.412;4.890;2024-02-14T09:40:04;6.82;;;2.72;;
47259;SDS011;32999;52.412;4.890;2024-02-14T09:45:06;4.55;;;2.67;;
47259;SDS011;32999;52.412;4.890;2024-02-14T09:50:10;4.28;;;2.30;;
47259;SDS011;32999;52.412;4.890;2024-02-14T09:55:13;3.38;;;2.55;;
47259;SDS011;32999;52.412;4.890;2024-02-14T10:00:15;5.45;;;2.47;;
47259;SDS011;32999;52.412;4.890;2024-02-14T10:05:18;6.32;;;2.78;;
47259;SDS011;32999;52.412;4.890;2024-02-14T10:10:20;4.05;;;3.00;;
47259;SDS011;32999;52.412;4.890;2024-02-14T10:15:23;6.90;;;3.80;;
47259;SDS011;32999;52.412;4.890;2024-02-14T10:20:28;8.82;;;5.00;;
47259;SDS011;32999;52.412;4.890;2024-02-14T10:25:30;11.38;;;5.65;;
47259;SDS011;32999;52.412;4.890;2024-02-14T10:30:32;13.48;;;6.00;;
47259;SDS011;32999;52.412;4.890;2024-02-14T10:35:36;9.43;;;6.55;;
47259;SDS011;32999;52.412;4.890;2024-02-14T10:40:41;9.98;;;6.30;;
47259;SDS011;32999;52.412;4.890;2024-02-14T10:45:43;9.32;;;6.70;;
47259;SDS011;32999;52.412;4.890;2024-02-14T10:50:46;8.48;;;6.20;;
47259;SDS011;32999;52.412;4.890;2024-02-14T10:55:50;12.20;;;6.55;;
47259;SDS011;32999;52.412;4.890;2024-02-14T11:00:53;6.68;;;5.60;;
47259;SDS011;32999;52.412;4.890;2024-02-14T11:05:56;8.45;;;5.90;;
47259;SDS011;32999;52.412;4.890;2024-02-14T11:11:05;10.98;;;6.45;;
47259;SDS011;32999;52.412;4.890;2024-02-14T11:16:08;8.33;;;6.23;;
47259;SDS011;32999;52.412;4.890;2024-02-14T11:21:27;7.90;;;6.50;;
47259;SDS011;32999;52.412;4.890;2024-02-14T11:26:45;8.30;;;4.70;;
47259;SDS011;32999;52.412;4.890;2024-02-14T11:31:59;4.57;;;3.72;;
47259;SDS011;32999;52.412;4.890;2024-02-14T11:37:03;4.43;;;3.58;;
47259;SDS011;32999;52.412;4.890;2024-02-14T11:42:06;4.55;;;3.70;;
47259;SDS011;32999;52.412;4.890;2024-02-14T11:47:09;6.53;;;4.30;;
47259;SDS011;32999;52.412;4.890;2024-02-14T11:52:13;4.60;;;4.18;;
47259;SDS011;32999;52.412;4.890;2024-02-14T11:57:16;5.07;;;3.80;;
47259;SDS011;32999;52.412;4.890;2024-02-14T12:02:18;4.28;;;3.67;;
47259;SDS011;32999;52.412;4.890;2024-02-14T12:07:22;3.90;;;3.35;;
47259;SDS011;32999;52.412;4.890;2024-02-14T12:12:25;3.63;;;3.13;;
47259;SDS011;32999;52.412;4.890;2024-02-14T12:17:34;3.22;;;2.90;;
47259;SDS011;32999;52.412;4.890;2024-02-14T12:22:38;5.07;;;3.35;;
47259;SDS011;32999;52.412;4.890;2024-02-14T12:27:39;5.50;;;3.42;;
47259;SDS011;32999;52.412;4.890;2024-02-14T12:32:41;4.07;;;3.25;;
47259;SDS011;32999;52.412;4.890;2024-02-14T12:37:44;4.25;;;3.35;;
47259;SDS011;32999;52.412;4.890;2024-02-14T12:42:46;3.83;;;3.40;;
47259;SDS011;32999;52.412;4.890;2024-02-14T12:47:47;7.00;;;4.05;;
47259;SDS011;32999;52.412;4.890;2024-02-14T12:52:55;4.20;;;3.37;;
47259;SDS011;32999;52.412;4.890;2024-02-14T12:57:58;3.75;;;2.95;;
47259;SDS011;32999;52.412;4.890;2024-02-14T13:03:07;6.57;;;3.67;;
47259;SDS011;32999;52.412;4.890;2024-02-14T13:08:13;3.10;;;2.40;;
47259;SDS011;32999;52.412;4.890;2024-02-14T13:13:16;2.75;;;1.92;;
47259;SDS011;32999;52.412;4.890;2024-02-14T13:18:18;3.25;;;2.25;;
47259;SDS011;32999;52.412;4.890;2024-02-14T13:23:21;2.30;;;1.58;;
47259;SDS011;32999;52.412;4.890;2024-02-14T13:28:23;3.67;;;1.63;;
47259;SDS011;32999;52.412;4.890;2024-02-14T13:33:25;3.17;;;1.13;;
47259;SDS011;32999;52.412;4.890;2024-02-14T13:38:28;5.55;;;2.53;;
47259;SDS011;32999;52.412;4.890;2024-02-14T13:43:30;4.68;;;3.38;;
47259;SDS011;32999;52.412;4.890;2024-02-14T13:48:31;5.00;;;3.42;;
47259;SDS011;32999;52.412;4.890;2024-02-14T13:53:34;17.23;;;10.07;;
47259;SDS011;32999;52.412;4.890;2024-02-14T13:58:36;19.55;;;12.40;;
47259;SDS011;32999;52.412;4.890;2024-02-14T14:03:39;15.85;;;10.43;;
47259;SDS011;32999;52.412;4.890;2024-02-14T14:08:42;20.75;;;12.85;;
47259;SDS011;32999;52.412;4.890;2024-02-14T14:13:45;17.95;;;10.43;;
47259;SDS011;32999;52.412;4.890;2024-02-14T14:18:47;20.63;;;10.25;;
47259;SDS011;32999;52.412;4.890;2024-02-14T14:23:50;22.35;;;12.68;;
47259;SDS011;32999;52.412;4.890;2024-02-14T14:28:56;17.92;;;11.10;;
47259;SDS011;32999;52.412;4.890;2024-02-14T14:34:09;16.95;;;9.13;;
47259;SDS011;32999;52.412;4.890;2024-02-14T14:39:12;16.00;;;10.50;;
47259;SDS011;32999;52.412;4.890;2024-02-14T14:44:14;16.52;;;10.95;;
47259;SDS011;32999;52.412;4.890;2024-02-14T14:49:15;15.00;;;11.52;;
47259;SDS011;32999;52.412;4.890;2024-02-14T14:54:21;11.75;;;8.52;;
47259;SDS011;32999;52.412;4.890;2024-02-14T15:04:24;11.68;;;7.45;;
47259;SDS011;32999;52.412;4.890;2024-02-14T15:09:27;7.47;;;5.90;;
47259;SDS011;32999;52.412;4.890;2024-02-14T15:14:28;15.38;;;6.05;;
47259;SDS011;32999;52.412;4.890;2024-02-14T15:19:29;11.68;;;7.45;;
47259;SDS011;32999;52.412;4.890;2024-02-14T15:24:32;13.13;;;7.32;;
47259;SDS011;32999;52.412;4.890;2024-02-14T15:29:36;14.15;;;7.57;;
47259;SDS011;32999;52.412;4.890;2024-02-14T15:34:54;14.73;;;8.25;;
47259;SDS011;32999;52.412;4.890;2024-02-14T15:39:58;19.23;;;10.70;;
47259;SDS011;32999;52.412;4.890;2024-02-14T15:44:59;27.95;;;12.18;;
47259;SDS011;32999;52.412;4.890;2024-02-14T15:50:01;19.95;;;7.22;;
47259;SDS011;32999;52.412;4.890;2024-02-14T15:55:04;17.55;;;8.23;;
47259;SDS011;32999;52.412;4.890;2024-02-14T16:00:08;21.70;;;5.28;;
47259;SDS011;32999;52.412;4.890;2024-02-14T16:05:11;16.38;;;5.70;;
47259;SDS011;32999;52.412;4.890;2024-02-14T16:15:35;16.55;;;6.43;;
47259;SDS011;32999;52.412;4.890;2024-02-14T16:20:41;16.40;;;4.72;;
47259;SDS011;32999;52.412;4.890;2024-02-14T16:25:43;13.65;;;4.80;;
47259;SDS011;32999;52.412;4.890;2024-02-14T16:30:46;20.80;;;4.78;;
47259;SDS011;32999;52.412;4.890;2024-02-14T16:35:48;17.17;;;4.47;;
47259;SDS011;32999;52.412;4.890;2024-02-14T16:40:49;15.00;;;5.15;;
47259;SDS011;32999;52.412;4.890;2024-02-14T16:45:52;16.75;;;6.15;;
47259;SDS011;32999;52.412;4.890;2024-02-14T16:50:54;21.08;;;8.13;;
47259;SDS011;32999;52.412;4.890;2024-02-14T16:55:56;27.05;;;10.43;;
47259;SDS011;32999;52.412;4.890;2024-02-14T17:00:59;28.35;;;6.60;;
47259;SDS011;32999;52.412;4.890;2024-02-14T17:06:04;29.17;;;7.97;;
47259;SDS011;32999;52.412;4.890;2024-02-14T17:11:06;22.05;;;8.38;;
47259;SDS011;32999;52.412;4.890;2024-02-14T17:21:48;28.75;;;9.13;;
47259;SDS011;32999;52.412;4.890;2024-02-14T17:26:55;28.27;;;9.88;;
47259;SDS011;32999;52.412;4.890;2024-02-14T17:31:57;32.97;;;9.98;;
47259;SDS011;32999;52.412;4.890;2024-02-14T17:37:00;24.17;;;9.32;;
47259;SDS011;32999;52.412;4.890;2024-02-14T17:42:02;23.70;;;10.45;;
47259;SDS011;32999;52.412;4.890;2024-02-14T17:47:04;23.15;;;9.20;;
47259;SDS011;32999;52.412;4.890;2024-02-14T17:52:07;27.52;;;10.48;;
47259;SDS011;32999;52.412;4.890;2024-02-14T17:57:09;28.33;;;11.60;;
47259;SDS011;32999;52.412;4.890;2024-02-14T18:02:11;21.58;;;7.50;;
47259;SDS011;32999;52.412;4.890;2024-02-14T18:07:14;24.05;;;9.40;;
47259;SDS011;32999;52.412;4.890;2024-02-14T18:12:17;25.55;;;8.07;;
47259;SDS011;32999;52.412;4.890;2024-02-14T18:17:21;31.45;;;11.52;;
47259;SDS011;32999;52.412;4.890;2024-02-14T18:22:27;28.98;;;9.65;;
47259;SDS011;32999;52.412;4.890;2024-02-14T18:27:28;32.00;;;13.43;;
47259;SDS011;32999;52.412;4.890;2024-02-14T18:32:30;34.10;;;12.48;;
47259;SDS011;32999;52.412;4.890;2024-02-14T18:37:33;31.60;;;11.80;;
47259;SDS011;32999;52.412;4.890;2024-02-14T18:42:35;31.33;;;10.48;;
47259;SDS011;32999;52.412;4.890;2024-02-14T18:47:40;20.65;;;6.88;;
47259;SDS011;32999;52.412;4.890;2024-02-14T18:52:52;31.70;;;12.45;;
47259;SDS011;32999;52.412;4.890;2024-02-14T18:58:02;31.25;;;13.68;;
47259;SDS011;32999;52.412;4.890;2024-02-14T19:03:15;38.95;;;16.10;;
47259;SDS011;32999;52.412;4.890;2024-02-14T19:08:25;31.67;;;13.18;;
47259;SDS011;32999;52.412;4.890;2024-02-14T19:13:31;23.20;;;11.52;;
47259;SDS011;32999;52.412;4.890;2024-02-14T19:18:33;32.85;;;12.27;;
47259;SDS011;32999;52.412;4.890;2024-02-14T19:23:39;39.15;;;14.35;;
47259;SDS011;32999;52.412;4.890;2024-02-14T19:28:47;29.33;;;10.40;;
47259;SDS011;32999;52.412;4.890;2024-02-14T19:33:55;41.15;;;14.90;;
47259;SDS011;32999;52.412;4.890;2024-02-14T19:39:05;25.48;;;11.98;;
47259;SDS011;32999;52.412;4.890;2024-02-14T19:44:10;27.25;;;11.05;;
47259;SDS011;32999;52.412;4.890;2024-02-14T19:49:15;18.67;;;7.22;;
47259;SDS011;32999;52.412;4.890;2024-02-14T19:54:18;23.35;;;9.55;;
47259;SDS011;32999;52.412;4.890;2024-02-14T19:59:20;42.25;;;16.92;;
47259;SDS011;32999;52.412;4.890;2024-02-14T20:04:22;32.17;;;15.45;;
47259;SDS011;32999;52.412;4.890;2024-02-14T20:09:25;30.58;;;13.73;;
47259;SDS011;32999;52.412;4.890;2024-02-14T20:14:31;29.42;;;12.10;;
47259;SDS011;32999;52.412;4.890;2024-02-14T20:19:49;34.65;;;12.73;;
47259;SDS011;32999;52.412;4.890;2024-02-14T20:24:54;29.45;;;10.85;;
47259;SDS011;32999;52.412;4.890;2024-02-14T20:29:56;20.00;;;8.55;;
47259;SDS011;32999;52.412;4.890;2024-02-14T20:34:58;30.30;;;12.27;;
47259;SDS011;32999;52.412;4.890;2024-02-14T20:40:02;34.83;;;12.93;;
47259;SDS011;32999;52.412;4.890;2024-02-14T20:45:04;24.02;;;9.80;;
47259;SDS011;32999;52.412;4.890;2024-02-14T20:50:06;19.67;;;7.25;;
47259;SDS011;32999;52.412;4.890;2024-02-14T20:55:09;17.00;;;8.73;;
47259;SDS011;32999;52.412;4.890;2024-02-14T21:00:11;33.53;;;13.95;;
47259;SDS011;32999;52.412;4.890;2024-02-14T21:05:14;26.65;;;12.90;;
47259;SDS011;32999;52.412;4.890;2024-02-14T21:10:17;17.15;;;8.15;;
47259;SDS011;32999;52.412;4.890;2024-02-14T21:15:19;14.77;;;6.72;;
47259;SDS011;32999;52.412;4.890;2024-02-14T21:20:20;21.73;;;8.57;;
47259;SDS011;32999;52.412;4.890;2024-02-14T21:25:24;23.70;;;10.70;;
47259;SDS011;32999;52.412;4.890;2024-02-14T21:30:47;36.03;;;12.05;;
47259;SDS011;32999;52.412;4.890;2024-02-14T21:36:02;26.33;;;11.80;;
47259;SDS011;32999;52.412;4.890;2024-02-14T21:41:05;25.48;;;10.30;;
47259;SDS011;32999;52.412;4.890;2024-02-14T21:46:07;14.18;;;9.60;;
47259;SDS011;32999;52.412;4.890;2024-02-14T21:51:09;28.67;;;13.18;;
47259;SDS011;32999;52.412;4.890;2024-02-14T21:56:14;23.70;;;13.18;;
47259;SDS011;32999;52.412;4.890;2024-02-14T22:01:16;25.08;;;10.68;;
47259;SDS011;32999;52.412;4.890;2024-02-14T22:06:18;24.75;;;11.15;;
47259;SDS011;32999;52.412;4.890;2024-02-14T22:11:21;27.48;;;9.60;;
47259;SDS011;32999;52.412;4.890;2024-02-14T22:16:24;21.63;;;9.48;;
47259;SDS011;32999;52.412;4.890;2024-02-14T22:21:26;20.27;;;9.35;;
47259;SDS011;32999;52.412;4.890;2024-02-14T22:26:29;28.70;;;9.55;;
47259;SDS011;32999;52.412;4.890;2024-02-14T22:31:30;22.50;;;6.25;;
47259;SDS011;32999;52.412;4.890;2024-02-14T22:36:32;19.52;;;8.32;;
47259;SDS011;32999;52.412;4.890;2024-02-14T22:41:35;15.70;;;7.65;;
47259;SDS011;32999;52.412;4.890;2024-02-14T22:46:38;20.58;;;8.15;;
47259;SDS011;32999;52.412;4.890;2024-02-14T22:51:40;21.10;;;7.18;;
47259;SDS011;32999;52.412;4.890;2024-02-14T22:56:43;13.73;;;6.55;;
47259;SDS011;32999;52.412;4.890;2024-02-14T23:01:45;19.80;;;9.00;;
47259;SDS011;32999;52.412;4.890;2024-02-14T23:06:46;20.25;;;7.93;;
47259;SDS011;32999;52.412;4.890;2024-02-14T23:11:49;14.32;;;3.85;;
47259;SDS011;32999;52.412;4.890;2024-02-14T23:16:51;15.02;;;4.35;;
47259;SDS011;32999;52.412;4.890;2024-02-14T23:21:52;12.73;;;4.63;;
47259;SDS011;32999;52.412;4.890;2024-02-14T23:26:56;14.75;;;4.38;;
47259;SDS011;32999;52.412;4.890;2024-02-14T23:31:57;11.75;;;4.57;;
47259;SDS011;32999;52.412;4.890;2024-02-14T23:37:00;16.63;;;3.40;;
47259;SDS011;32999;52.412;4.890;2024-02-14T23:42:03;15.90;;;3.13;;
47259;SDS011;32999;52.412;4.890;2024-02-14T23:47:06;8.73;;;2.03;;
47259;SDS011;32999;52.412;4.890;2024-02-14T23:52:07;16.08;;;2.85;;
47259;SDS011;32999;52.412;4.890;2024-02-14T23:57:10;16.17;;;2.47;;
